createdAt,value
2022-10-14T00:01:51.680Z,1383
2022-10-14T00:07:10.176Z,1387
2022-10-14T00:12:28.406Z,1376
2022-10-14T00:17:46.955Z,1375
2022-10-14T00:23:04.876Z,1377
2022-10-14T00:28:23.706Z,1393
2022-10-14T00:33:42.005Z,1406
2022-10-14T00:39:00.515Z,1410
2022-10-14T00:44:19.018Z,1424
2022-10-14T00:49:37.213Z,1437
2022-10-14T00:54:55.709Z,1435
2022-10-14T01:00:14.498Z,1428
2022-10-14T01:05:33.233Z,1422
2022-10-14T01:10:52.009Z,1413
2022-10-14T01:16:10.255Z,1426
2022-10-14T01:27:00.309Z,1457
2022-10-14T01:32:19.342Z,1456
2022-10-14T01:37:38.546Z,1446
2022-10-14T01:42:56.731Z,1453
2022-10-14T01:48:15.542Z,1466
2022-10-14T01:53:33.470Z,1478
2022-10-14T01:58:52.223Z,1483
2022-10-14T02:04:11.012Z,1483
2022-10-14T02:09:29.480Z,1482
2022-10-14T02:14:47.696Z,1473
2022-10-14T02:20:06.211Z,1475
2022-10-14T02:25:24.958Z,1470
2022-10-14T02:30:43.719Z,1466
2022-10-14T02:36:02.213Z,1457
2022-10-14T02:41:20.686Z,1453
2022-10-14T02:46:38.899Z,1450
2022-10-14T02:51:57.124Z,1452
2022-10-14T02:57:15.627Z,1452
2022-10-14T03:02:33.534Z,1447
2022-10-14T03:07:51.781Z,1468
2022-10-14T03:13:09.993Z,1474
2022-10-14T03:18:28.460Z,1442
2022-10-14T03:23:46.964Z,1434
2022-10-14T03:29:05.168Z,1436
2022-10-14T03:34:23.688Z,1458
2022-10-14T03:39:42.010Z,1492
2022-10-14T03:45:00.470Z,1468
2022-10-14T03:50:19.236Z,1424
2022-10-14T03:55:37.764Z,1402
2022-10-14T04:00:55.960Z,1378
2022-10-14T04:06:14.162Z,1382
2022-10-14T04:11:32.957Z,1383
2022-10-14T04:16:51.443Z,1382
2022-10-14T04:22:10.199Z,1376
2022-10-14T04:27:28.720Z,1380
2022-10-14T04:32:46.598Z,1379
2022-10-14T04:38:05.102Z,1388
2022-10-14T04:43:23.922Z,1379
2022-10-14T04:48:42.655Z,1363
2022-10-14T04:54:01.160Z,942
2022-10-14T04:59:19.679Z,907
2022-10-14T05:04:38.144Z,842
2022-10-14T05:09:56.987Z,903
2022-10-14T05:15:15.882Z,999
2022-10-14T05:20:34.340Z,1042
2022-10-14T05:25:52.850Z,1050
2022-10-14T05:31:11.686Z,1053
2022-10-14T05:36:30.454Z,1055
2022-10-14T05:41:49.213Z,1054
2022-10-14T05:47:07.734Z,1061
2022-10-14T05:52:26.218Z,1079
2022-10-14T05:57:44.418Z,1078
2022-10-14T06:03:03.006Z,1075
2022-10-14T06:08:21.090Z,1066
2022-10-14T06:13:39.318Z,1065
2022-10-14T06:18:58.083Z,1064
2022-10-14T06:24:16.829Z,1056
2022-10-14T06:29:35.324Z,1050
2022-10-14T06:34:54.134Z,1034
2022-10-14T06:40:12.601Z,1016
2022-10-14T06:45:31.393Z,1006
2022-10-14T06:50:49.890Z,1004
2022-10-14T06:56:08.104Z,993
2022-10-14T07:01:26.592Z,972
2022-10-14T07:06:45.032Z,960
2022-10-14T07:12:03.505Z,941
2022-10-14T07:17:22.532Z,931
2022-10-14T07:22:42.168Z,914
2022-10-14T07:28:00.103Z,910
2022-10-14T07:33:18.277Z,898
2022-10-14T07:38:36.521Z,885
2022-10-14T07:43:55.284Z,876
2022-10-14T07:49:13.730Z,875
2022-10-14T07:54:32.262Z,870
2022-10-14T07:59:50.435Z,860
2022-10-14T08:05:26.018Z,855
2022-10-14T08:10:56.911Z,854
2022-10-14T08:16:15.445Z,845
2022-10-14T08:21:33.919Z,840
2022-10-14T08:26:52.420Z,828
2022-10-14T08:32:10.899Z,821
2022-10-14T08:37:29.379Z,809
2022-10-14T08:42:48.174Z,803
2022-10-14T08:48:06.423Z,801
2022-10-14T08:53:24.642Z,794
2022-10-14T08:58:42.870Z,784
2022-10-14T09:04:01.056Z,788
2022-10-14T09:09:18.971Z,782
2022-10-14T09:14:37.480Z,781
2022-10-14T09:19:55.671Z,776
2022-10-14T09:25:13.871Z,776
2022-10-14T09:30:32.655Z,781
2022-10-14T09:35:51.186Z,767
2022-10-14T09:41:09.746Z,762
2022-10-14T09:46:28.533Z,758
2022-10-14T09:51:46.719Z,761
2022-10-14T09:57:05.185Z,758
2022-10-14T10:02:23.698Z,753
2022-10-14T10:07:41.865Z,753
2022-10-14T10:13:00.644Z,752
2022-10-14T10:18:19.181Z,744
2022-10-14T10:23:37.358Z,741
2022-10-14T10:28:55.591Z,736
2022-10-14T10:34:14.081Z,726
2022-10-14T10:39:32.248Z,727
2022-10-14T10:44:50.517Z,725
2022-10-14T10:50:08.765Z,721
2022-10-14T10:55:27.273Z,720
2022-10-14T11:00:45.182Z,726
2022-10-14T11:06:03.436Z,719
2022-10-14T11:11:21.613Z,728
2022-10-14T11:16:39.830Z,732
2022-10-14T11:21:58.070Z,735
2022-10-14T11:27:18.615Z,731
2022-10-14T11:32:42.802Z,721
2022-10-14T11:38:01.580Z,712
2022-10-14T11:43:19.750Z,710
2022-10-14T11:48:38.237Z,713
2022-10-14T11:53:57.020Z,715
2022-10-14T11:59:15.474Z,718
2022-10-14T13:13:37.682Z,709
2022-10-14T13:18:56.149Z,707
2022-10-14T13:24:15.107Z,703
2022-10-14T13:29:33.606Z,699
2022-10-14T13:34:51.798Z,695
2022-10-14T13:39:54.665Z,691
2022-10-14T13:45:12.901Z,691
2022-10-14T13:50:31.357Z,686
2022-10-14T13:55:53.970Z,686
2022-10-14T14:01:13.148Z,687
2022-10-14T14:06:35.770Z,694
2022-10-14T14:13:16.659Z,696
2022-10-14T14:18:38.472Z,692
2022-10-14T14:24:27.785Z,692
2022-10-14T14:29:46.520Z,692
2022-10-14T14:35:05.325Z,690
2022-10-14T14:40:23.781Z,699
2022-10-14T14:45:42.253Z,707
2022-10-14T14:51:01.082Z,711
2022-10-14T14:56:19.543Z,721
2022-10-14T15:01:38.012Z,768
2022-10-14T15:06:56.787Z,796
2022-10-14T15:12:16.271Z,805
2022-10-14T15:17:34.524Z,836
2022-10-14T15:22:53.014Z,873
2022-10-14T15:28:11.193Z,830
2022-10-14T15:33:29.944Z,817
2022-10-14T15:38:48.451Z,835
2022-10-14T15:44:07.189Z,837
2022-10-14T15:49:25.963Z,833
2022-10-14T15:54:44.534Z,834
2022-10-14T16:00:02.996Z,837
2022-10-14T16:05:21.250Z,830
2022-10-14T16:10:39.561Z,836
2022-10-14T16:15:57.474Z,833
2022-10-14T16:21:15.661Z,836
2022-10-14T16:26:34.502Z,832
2022-10-14T16:31:52.787Z,834
2022-10-14T16:37:11.277Z,830
2022-10-14T16:42:29.743Z,839
2022-10-14T16:47:47.815Z,839
2022-10-14T16:53:06.573Z,844
2022-10-14T16:58:24.800Z,848
2022-10-14T17:03:42.986Z,844
2022-10-14T17:09:01.206Z,849
2022-10-14T17:14:04.335Z,851
2022-10-14T17:19:23.068Z,868
2022-10-14T17:24:25.896Z,880
2022-10-14T17:29:44.145Z,896
2022-10-14T17:35:02.904Z,944
2022-10-14T17:40:21.359Z,917
2022-10-14T17:45:39.897Z,899
2022-10-14T17:50:58.190Z,889
2022-10-14T17:56:16.658Z,879
2022-10-14T18:01:37.559Z,864
2022-10-14T18:07:26.004Z,859
2022-10-14T18:12:44.809Z,731
2022-10-14T18:18:03.600Z,723
2022-10-14T18:23:21.853Z,797
2022-10-14T18:28:40.665Z,863
2022-10-14T18:33:58.987Z,889
2022-10-14T18:39:17.028Z,922
2022-10-14T18:44:35.478Z,948
2022-10-14T18:49:54.073Z,972
2022-10-14T18:55:12.110Z,988
2022-10-14T19:00:15.236Z,1002
2022-10-14T19:05:34.021Z,1027
2022-10-14T19:10:52.200Z,1033
2022-10-14T19:16:10.430Z,1040
2022-10-14T19:21:28.347Z,1054
2022-10-14T19:26:46.560Z,1070
2022-10-14T19:32:04.488Z,1085
2022-10-14T19:37:23.634Z,1100
2022-10-14T19:42:43.440Z,1123
2022-10-14T19:48:02.209Z,1143
2022-10-14T19:53:20.783Z,1172
2022-10-14T19:58:40.902Z,1205
2022-10-14T20:04:02.883Z,1221
2022-10-14T20:09:21.090Z,1250
2022-10-14T20:14:39.622Z,1277
2022-10-14T20:19:57.774Z,1303
2022-10-14T20:25:16.558Z,1328
2022-10-14T20:30:35.391Z,1359
2022-10-14T20:35:54.164Z,1377
2022-10-14T20:41:12.929Z,1389
2022-10-14T20:46:31.030Z,1395
2022-10-14T20:51:49.498Z,1410
2022-10-14T20:57:08.298Z,1428
2022-10-14T21:02:26.770Z,1443
2022-10-14T21:07:45.188Z,1453
2022-10-14T21:13:04.004Z,1475
2022-10-14T21:18:22.466Z,1480
2022-10-14T21:23:42.307Z,1492
2022-10-14T21:29:00.940Z,1501
2022-10-14T21:34:19.878Z,1508
2022-10-14T21:39:38.645Z,1511
2022-10-14T21:44:56.902Z,1512
2022-10-14T21:50:15.638Z,1514
2022-10-14T21:55:34.110Z,1513
2022-10-14T22:00:52.376Z,1518
2022-10-14T22:06:11.184Z,1521
2022-10-14T22:11:29.911Z,1512
2022-10-14T22:16:48.706Z,1513
2022-10-14T22:22:07.357Z,1520
2022-10-14T22:27:26.204Z,1518
2022-10-14T22:32:44.701Z,1518
2022-10-14T22:38:03.432Z,1512
2022-10-14T22:43:21.947Z,1524
2022-10-14T22:48:40.716Z,1541
2022-10-14T22:53:58.928Z,1544
2022-10-14T22:59:17.668Z,1556
2022-10-14T23:04:36.172Z,1575
2022-10-14T23:09:55.179Z,1590
2022-10-14T23:15:13.378Z,1599
2022-10-14T23:20:31.893Z,1612
2022-10-14T23:25:50.335Z,1642
2022-10-14T23:31:09.104Z,1632
2022-10-14T23:36:27.227Z,1634
2022-10-14T23:41:45.582Z,1648
2022-10-14T23:47:04.087Z,1664
2022-10-14T23:52:22.875Z,1677
2022-10-14T23:57:41.327Z,1679
